sensor_id;sensor_type;location;lat;lon;timestamp;temperature;humidity
47845;DHT22;33605;48.822;8.796;2024-01-25T20:09:11;16.10;33.40
47845;DHT22;33605;48.822;8.796;2024-01-25T20:28:42;13.40;45.40
47845;DHT22;33605;48.822;8.796;2024-01-25T20:31:08;13.00;46.20
47845;DHT22;33605;48.822;8.796;2024-01-25T20:33:35;12.90;46.20
47845;DHT22;33605;48.822;8.796;2024-01-25T20:36:01;12.90;46.30
47845;DHT22;33605;48.822;8.796;2024-01-25T20:38:26;12.80;46.50
47845;DHT22;33605;48.822;8.796;2024-01-25T20:40:52;12.80;46.70
47845;DHT22;33605;48.822;8.796;2024-01-25T20:43:17;12.80;46.90
47845;DHT22;33605;48.822;8.796;2024-01-25T20:45:43;12.70;46.80
47845;DHT22;33605;48.822;8.796;2024-01-25T20:48:09;12.70;46.80
47845;DHT22;33605;48.822;8.796;2024-01-25T20:50:35;12.70;46.90
47845;DHT22;33605;48.822;8.796;2024-01-25T20:53:00;12.70;47.00
47845;DHT22;33605;48.822;8.796;2024-01-25T20:55:26;12.60;46.90
47845;DHT22;33605;48.822;8.796;2024-01-25T20:57:51;12.60;47.10
47845;DHT22;33605;48.822;8.796;2024-01-25T21:00:17;12.60;47.20
47845;DHT22;33605;48.822;8.796;2024-01-25T21:02:45;12.50;47.10
47845;DHT22;33605;48.822;8.796;2024-01-25T21:05:12;12.50;47.00
47845;DHT22;33605;48.822;8.796;2024-01-25T21:07:38;12.50;47.20
47845;DHT22;33605;48.822;8.796;2024-01-25T21:10:04;12.40;47.20
47845;DHT22;33605;48.822;8.796;2024-01-25T21:12:30;12.30;47.30
47845;DHT22;33605;48.822;8.796;2024-01-25T21:14:56;12.30;47.60
47845;DHT22;33605;48.822;8.796;2024-01-25T21:17:22;12.30;47.60
47845;DHT22;33605;48.822;8.796;2024-01-25T21:19:47;12.20;47.90
47845;DHT22;33605;48.822;8.796;2024-01-25T21:22:13;12.20;48.20
47845;DHT22;33605;48.822;8.796;2024-01-25T21:24:38;12.10;48.00
47845;DHT22;33605;48.822;8.796;2024-01-25T21:27:04;12.10;48.10
47845;DHT22;33605;48.822;8.796;2024-01-25T21:29:31;12.10;48.30
47845;DHT22;33605;48.822;8.796;2024-01-25T21:31:57;12.00;48.70
47845;DHT22;33605;48.822;8.796;2024-01-25T21:34:22;12.00;48.80
47845;DHT22;33605;48.822;8.796;2024-01-25T21:36:49;12.00;49.00
47845;DHT22;33605;48.822;8.796;2024-01-25T21:39:16;12.00;49.30
47845;DHT22;33605;48.822;8.796;2024-01-25T21:41:41;12.00;49.50
47845;DHT22;33605;48.822;8.796;2024-01-25T21:44:08;12.00;49.60
47845;DHT22;33605;48.822;8.796;2024-01-25T21:46:38;12.00;49.70
47845;DHT22;33605;48.822;8.796;2024-01-25T21:49:05;12.00;49.70
47845;DHT22;33605;48.822;8.796;2024-01-25T21:51:31;12.00;49.90
47845;DHT22;33605;48.822;8.796;2024-01-25T21:53:57;12.00;50.30
47845;DHT22;33605;48.822;8.796;2024-01-25T21:56:22;12.00;50.30
47845;DHT22;33605;48.822;8.796;2024-01-25T21:58:48;12.10;50.40
47845;DHT22;33605;48.822;8.796;2024-01-25T22:01:13;12.10;50.30
47845;DHT22;33605;48.822;8.796;2024-01-25T22:03:43;12.10;50.30
47845;DHT22;33605;48.822;8.796;2024-01-25T22:06:08;12.10;50.30
47845;DHT22;33605;48.822;8.796;2024-01-25T22:08:34;12.00;50.10
47845;DHT22;33605;48.822;8.796;2024-01-25T22:11:01;12.10;50.00
47845;DHT22;33605;48.822;8.796;2024-01-25T22:13:27;12.00;50.00
47845;DHT22;33605;48.822;8.796;2024-01-25T22:15:52;12.00;50.00
47845;DHT22;33605;48.822;8.796;2024-01-25T22:18:19;12.00;50.00
47845;DHT22;33605;48.822;8.796;2024-01-25T22:20:45;12.00;50.20
47845;DHT22;33605;48.822;8.796;2024-01-25T22:23:10;12.00;50.20
47845;DHT22;33605;48.822;8.796;2024-01-25T22:25:36;12.00;50.50
47845;DHT22;33605;48.822;8.796;2024-01-25T22:28:02;12.00;50.60
47845;DHT22;33605;48.822;8.796;2024-01-25T22:30:27;12.00;50.40
47845;DHT22;33605;48.822;8.796;2024-01-25T22:32:53;12.00;50.20
47845;DHT22;33605;48.822;8.796;2024-01-25T22:35:19;12.00;50.40
47845;DHT22;33605;48.822;8.796;2024-01-25T22:37:45;12.00;50.40
47845;DHT22;33605;48.822;8.796;2024-01-25T22:40:11;11.90;50.30
47845;DHT22;33605;48.822;8.796;2024-01-25T22:42:37;11.90;50.30
47845;DHT22;33605;48.822;8.796;2024-01-25T22:45:03;11.90;50.30
47845;DHT22;33605;48.822;8.796;2024-01-25T22:47:29;11.90;50.40
47845;DHT22;33605;48.822;8.796;2024-01-25T22:49:55;11.90;50.50
47845;DHT22;33605;48.822;8.796;2024-01-25T22:52:20;11.90;50.50
47845;DHT22;33605;48.822;8.796;2024-01-25T22:54:46;11.90;50.50
47845;DHT22;33605;48.822;8.796;2024-01-25T22:57:12;11.90;50.60
47845;DHT22;33605;48.822;8.796;2024-01-25T22:59:37;11.90;50.60
47845;DHT22;33605;48.822;8.796;2024-01-25T23:02:03;11.80;50.60
47845;DHT22;33605;48.822;8.796;2024-01-25T23:04:29;11.90;50.80
47845;DHT22;33605;48.822;8.796;2024-01-25T23:06:55;11.90;50.80
47845;DHT22;33605;48.822;8.796;2024-01-25T23:09:21;11.90;50.90
47845;DHT22;33605;48.822;8.796;2024-01-25T23:11:48;11.90;50.90
47845;DHT22;33605;48.822;8.796;2024-01-25T23:14:15;11.90;50.90
47845;DHT22;33605;48.822;8.796;2024-01-25T23:16:40;11.90;51.00
47845;DHT22;33605;48.822;8.796;2024-01-25T23:19:06;11.90;51.10
47845;DHT22;33605;48.822;8.796;2024-01-25T23:21:31;12.00;51.20
47845;DHT22;33605;48.822;8.796;2024-01-25T23:23:57;11.90;51.20
47845;DHT22;33605;48.822;8.796;2024-01-25T23:26:23;11.90;51.30
47845;DHT22;33605;48.822;8.796;2024-01-25T23:28:49;11.90;51.30
47845;DHT22;33605;48.822;8.796;2024-01-25T23:31:15;12.00;51.30
47845;DHT22;33605;48.822;8.796;2024-01-25T23:33:44;12.00;51.30
47845;DHT22;33605;48.822;8.796;2024-01-25T23:36:09;12.00;51.40
47845;DHT22;33605;48.822;8.796;2024-01-25T23:38:35;12.00;51.40
47845;DHT22;33605;48.822;8.796;2024-01-25T23:41:01;12.00;51.50
47845;DHT22;33605;48.822;8.796;2024-01-25T23:43:29;12.00;51.50
47845;DHT22;33605;48.822;8.796;2024-01-25T23:45:54;12.00;51.50
47845;DHT22;33605;48.822;8.796;2024-01-25T23:48:20;12.00;51.50
47845;DHT22;33605;48.822;8.796;2024-01-25T23:50:46;12.00;51.70
47845;DHT22;33605;48.822;8.796;2024-01-25T23:53:13;12.00;51.80
47845;DHT22;33605;48.822;8.796;2024-01-25T23:55:39;12.10;51.90
47845;DHT22;33605;48.822;8.796;2024-01-25T23:58:04;12.10;52.00
